Time;durP1;ratioP1;P1;durP2;ratioP2;P2;SDS_P1;SDS_P2;PMS_P1;PMS_P2;Temp;Humidity;BMP_temperature;BMP_pressure;BME280_temperature;BME280_humidity;BME280_pressure;Samples;Min_cycle;Max_cycle;Signal;HPM_P1;HPM_P2
2023/10/11 00:01:18;;;;;;;9.13;6.23;;;;;;;;;;6214409;28;20195;-67
2023/10/11 00:04:26;;;;;;;9.37;5.90;;;;;;;;;;6231817;28;20268;-67
2023/10/11 00:07:32;;;;;;;11.13;5.50;;;;;;;;;;6215520;28;20202;-67
2023/10/11 00:10:33;;;;;;;10.10;6.33;;;;;;;;;;6217576;28;20186;-68
2023/10/11 00:13:35;;;;;;;8.03;5.57;;;;;;;;;;6213109;28;20191;-68
2023/10/11 00:16:39;;;;;;;8.10;5.57;;;;;;;;;;6224079;28;20191;-68
2023/10/11 00:19:42;;;;;;;10.57;5.13;;;;;;;;;;6214364;28;20199;-67
2023/10/11 00:22:43;;;;;;;7.63;5.57;;;;;;;;;;6214683;28;20246;-68
2023/10/11 00:25:44;;;;;;;8.53;5.60;;;;;;;;;;6208421;28;20235;-67
2023/10/11 00:28:45;;;;;;;8.50;5.97;;;;;;;;;;6221663;28;20285;-67
2023/10/11 00:31:47;;;;;;;9.53;5.90;;;;;;;;;;6212749;28;20187;-68
2023/10/11 00:34:49;;;;;;;10.10;6.10;;;;;;;;;;6212436;28;20207;-67
2023/10/11 00:37:51;;;;;;;6.50;5.17;;;;;;;;;;6200528;28;20199;-67
2023/10/11 00:44:19;;;;;;;7.90;5.20;;;;;;;;;;6245883;28;20306;-68
2023/10/11 00:47:22;;;;;;;6.40;4.87;;;;;;;;;;6212837;28;20279;-67
2023/10/11 00:50:23;;;;;;;9.53;5.40;;;;;;;;;;6216918;28;20199;-68
2023/10/11 00:53:26;;;;;;;8.53;5.73;;;;;;;;;;6231324;28;20193;-67
2023/10/11 00:56:34;;;;;;;11.13;5.73;;;;;;;;;;6221072;28;20191;-67
2023/10/11 00:59:36;;;;;;;10.30;5.37;;;;;;;;;;6222697;28;20279;-68
2023/10/11 01:02:37;;;;;;;10.00;5.50;;;;;;;;;;6213480;28;20234;-67
2023/10/11 01:05:43;;;;;;;10.33;5.57;;;;;;;;;;6205439;28;20194;-67
2023/10/11 01:08:48;;;;;;;9.63;5.73;;;;;;;;;;6232475;28;20191;-67
2023/10/11 01:11:49;;;;;;;6.90;5.63;;;;;;;;;;6229799;28;20187;-67
2023/10/11 01:14:59;;;;;;;7.63;5.63;;;;;;;;;;6212593;28;20192;-67
2023/10/11 01:18:00;;;;;;;9.57;5.77;;;;;;;;;;6207541;28;20195;-68
2023/10/11 01:21:03;;;;;;;7.37;5.77;;;;;;;;;;6199814;28;20203;-67
2023/10/11 01:24:08;;;;;;;7.60;5.60;;;;;;;;;;6206609;28;20246;-67
2023/10/11 01:27:13;;;;;;;7.13;5.30;;;;;;;;;;6203832;28;20187;-67
2023/10/11 01:30:17;;;;;;;7.37;5.53;;;;;;;;;;6210336;28;20286;-67
2023/10/11 01:33:18;;;;;;;8.47;6.00;;;;;;;;;;6208871;28;20232;-68
2023/10/11 01:36:22;;;;;;;9.83;6.07;;;;;;;;;;6211231;28;20195;-67
2023/10/11 01:39:23;;;;;;;7.83;5.43;;;;;;;;;;6210873;28;20186;-67
2023/10/11 01:42:24;;;;;;;9.97;5.67;;;;;;;;;;6231446;28;20186;-67
2023/10/11 01:45:25;;;;;;;6.60;5.83;;;;;;;;;;6232210;28;20186;-67
2023/10/11 01:48:26;;;;;;;9.37;5.93;;;;;;;;;;6204025;28;20191;-67
2023/10/11 01:51:28;;;;;;;8.03;5.70;;;;;;;;;;6196695;28;20262;-67
2023/10/11 01:54:31;;;;;;;7.77;5.50;;;;;;;;;;6220732;28;20175;-67
2023/10/11 01:57:34;;;;;;;6.70;5.27;;;;;;;;;;6209707;28;20191;-67
2023/10/11 02:00:35;;;;;;;8.77;6.07;;;;;;;;;;6202180;28;20230;-68
2023/10/11 02:03:39;;;;;;;8.37;5.23;;;;;;;;;;6214044;28;20217;-67
2023/10/11 02:06:41;;;;;;;13.87;5.63;;;;;;;;;;6215825;28;20198;-67
2023/10/11 02:09:43;;;;;;;11.87;6.17;;;;;;;;;;6213252;28;20249;-67
2023/10/11 02:12:44;;;;;;;7.50;5.40;;;;;;;;;;6204002;28;20194;-67
2023/10/11 02:15:47;;;;;;;8.80;5.90;;;;;;;;;;6211684;28;20187;-68
2023/10/11 02:18:51;;;;;;;8.33;5.33;;;;;;;;;;6215298;28;20252;-67
2023/10/11 02:21:55;;;;;;;8.37;5.63;;;;;;;;;;6223372;28;20191;-67
2023/10/11 02:24:58;;;;;;;9.53;5.43;;;;;;;;;;6200624;28;20242;-68
2023/10/11 02:28:00;;;;;;;7.23;5.03;;;;;;;;;;6215210;28;20194;-68
2023/10/11 02:31:01;;;;;;;11.17;5.83;;;;;;;;;;6210687;28;20182;-68
2023/10/11 02:34:12;;;;;;;9.93;6.13;;;;;;;;;;6209814;28;20217;-67
2023/10/11 02:37:16;;;;;;;9.53;5.73;;;;;;;;;;6220356;28;20286;-67
2023/10/11 02:40:22;;;;;;;10.50;5.10;;;;;;;;;;6208949;28;20283;-68
2023/10/11 02:43:25;;;;;;;11.03;5.50;;;;;;;;;;6226194;28;20212;-67
2023/10/11 02:46:26;;;;;;;9.73;5.60;;;;;;;;;;6239638;28;20194;-67
2023/10/11 02:49:31;;;;;;;8.67;5.73;;;;;;;;;;6235377;28;20219;-67
2023/10/11 02:52:39;;;;;;;8.30;5.77;;;;;;;;;;6226940;28;20191;-67
2023/10/11 02:55:40;;;;;;;12.03;5.00;;;;;;;;;;6218786;28;20187;-68
2023/10/11 02:58:42;;;;;;;9.30;5.57;;;;;;;;;;6210131;28;20191;-67
2023/10/11 03:01:43;;;;;;;9.77;5.03;;;;;;;;;;6204194;28;20186;-67
2023/10/11 03:04:44;;;;;;;7.07;5.60;;;;;;;;;;6213608;28;20222;-67
2023/10/11 03:07:45;;;;;;;10.17;5.50;;;;;;;;;;6212004;28;20240;-68
2023/10/11 03:10:53;;;;;;;7.37;5.23;;;;;;;;;;6226100;28;20237;-67
2023/10/11 03:13:54;;;;;;;10.10;5.57;;;;;;;;;;6234096;28;20282;-68
2023/10/11 03:16:56;;;;;;;6.13;5.03;;;;;;;;;;6219318;28;20206;-68
2023/10/11 03:19:57;;;;;;;7.00;4.93;;;;;;;;;;6211142;28;20203;-67
2023/10/11 03:23:04;;;;;;;7.87;5.30;;;;;;;;;;6207413;28;20228;-68
2023/10/11 03:26:16;;;;;;;9.00;5.53;;;;;;;;;;6216355;28;20188;-68
2023/10/11 03:29:21;;;;;;;8.40;5.10;;;;;;;;;;6199009;28;20313;-67
2023/10/11 03:32:25;;;;;;;7.30;4.93;;;;;;;;;;6213031;28;20281;-68
2023/10/11 03:35:26;;;;;;;7.40;5.07;;;;;;;;;;6234326;28;20194;-67
2023/10/11 03:38:32;;;;;;;10.30;6.20;;;;;;;;;;6208837;28;20198;-67
2023/10/11 03:41:35;;;;;;;7.30;5.10;;;;;;;;;;6212192;28;20203;-68
2023/10/11 03:44:40;;;;;;;6.67;4.67;;;;;;;;;;6216111;28;20243;-67
2023/10/11 03:47:41;;;;;;;9.60;5.27;;;;;;;;;;6202974;28;20231;-68
2023/10/11 03:50:47;;;;;;;7.40;5.30;;;;;;;;;;6217007;28;20198;-68
2023/10/11 03:53:48;;;;;;;8.23;5.30;;;;;;;;;;6204658;28;20206;-68
2023/10/11 03:56:53;;;;;;;8.80;6.37;;;;;;;;;;6211694;28;20198;-67
2023/10/11 03:59:54;;;;;;;6.47;5.40;;;;;;;;;;6232648;28;20189;-68
2023/10/11 04:03:02;;;;;;;7.57;5.00;;;;;;;;;;6218037;28;20218;-68
2023/10/11 04:06:13;;;;;;;8.57;5.50;;;;;;;;;;6225573;28;20188;-67
2023/10/11 04:09:32;;;;;;;6.80;4.27;;;;;;;;;;6218108;28;20248;-68
2023/10/11 04:12:36;;;;;;;8.80;4.70;;;;;;;;;;6210627;28;20191;-67
2023/10/11 04:15:40;;;;;;;6.63;4.97;;;;;;;;;;6221846;28;20226;-69
2023/10/11 04:18:43;;;;;;;7.17;5.30;;;;;;;;;;6209627;28;20299;-67
2023/10/11 04:21:54;;;;;;;8.73;5.70;;;;;;;;;;6231681;28;20288;-67
2023/10/11 04:24:55;;;;;;;10.13;5.70;;;;;;;;;;6201712;28;20247;-67
2023/10/11 04:27:57;;;;;;;8.10;5.20;;;;;;;;;;6204108;28;20195;-67
2023/10/11 04:31:28;;;;;;;8.67;5.30;;;;;;;;;;6204622;28;20248;-67
2023/10/11 04:34:23;;;;;;;10.53;5.97;;;;;;;;;;6238357;28;20250;-66
2023/10/11 04:37:27;;;;;;;10.33;5.10;;;;;;;;;;6198687;28;20200;-67
2023/10/11 04:43:40;;;;;;;8.13;5.27;;;;;;;;;;6232958;28;20215;-67
2023/10/11 04:46:44;;;;;;;7.90;5.17;;;;;;;;;;6212454;28;20309;-67
2023/10/11 04:49:45;;;;;;;9.23;5.17;;;;;;;;;;6203385;28;20191;-67
2023/10/11 04:52:49;;;;;;;7.40;5.23;;;;;;;;;;6201671;28;20199;-67
2023/10/11 04:56:01;;;;;;;10.73;5.60;;;;;;;;;;6201483;28;20264;-67
2023/10/11 05:02:39;;;;;;;7.07;5.13;;;;;;;;;;6223003;28;20263;-67
2023/10/11 05:05:58;;;;;;;10.33;5.20;;;;;;;;;;6235457;28;20203;-67
2023/10/11 05:09:13;;;;;;;8.13;5.23;;;;;;;;;;6202892;28;20270;-67
2023/10/11 05:12:19;;;;;;;10.47;6.07;;;;;;;;;;6197499;28;20195;-67
2023/10/11 05:15:28;;;;;;;9.63;5.77;;;;;;;;;;6230451;28;20219;-67
2023/10/11 05:18:31;;;;;;;10.40;5.57;;;;;;;;;;6209981;28;20194;-67
2023/10/11 05:21:38;;;;;;;9.20;5.80;;;;;;;;;;6211848;28;20183;-67
2023/10/11 05:25:12;;;;;;;8.50;5.33;;;;;;;;;;6229495;28;20239;-66
2023/10/11 05:31:34;;;;;;;10.27;6.00;;;;;;;;;;6247238;28;20182;-67
2023/10/11 05:51:13;;;;;;;12.63;5.90;;;;;;;;;;6221794;28;20227;-67
2023/10/11 05:54:16;;;;;;;11.17;5.83;;;;;;;;;;6213554;28;20194;-67
2023/10/11 05:57:19;;;;;;;10.73;5.93;;;;;;;;;;6214926;28;20205;-67
2023/10/11 06:00:23;;;;;;;8.50;6.00;;;;;;;;;;6203838;28;20199;-67
2023/10/11 06:03:28;;;;;;;16.73;6.57;;;;;;;;;;6214414;28;20222;-67
2023/10/11 06:06:38;;;;;;;8.40;5.67;;;;;;;;;;6205462;28;20191;-66
2023/10/11 06:09:43;;;;;;;10.90;6.33;;;;;;;;;;6215524;28;20191;-67
2023/10/11 06:12:45;;;;;;;9.50;6.07;;;;;;;;;;6225067;28;20199;-66
2023/10/11 06:15:58;;;;;;;7.97;5.80;;;;;;;;;;6212572;28;20194;-67
2023/10/11 06:19:16;;;;;;;9.43;5.90;;;;;;;;;;6233780;28;20195;-67
2023/10/11 06:22:17;;;;;;;6.00;5.17;;;;;;;;;;6229377;28;20211;-67
2023/10/11 06:26:28;;;;;;;10.70;6.73;;;;;;;;;;6207926;28;20273;-66
2023/10/11 06:28:39;;;;;;;9.80;6.03;;;;;;;;;;6223962;28;20187;-67
2023/10/11 06:31:43;;;;;;;9.63;6.50;;;;;;;;;;6225318;28;20274;-67
2023/10/11 06:34:47;;;;;;;12.20;6.93;;;;;;;;;;6212400;28;20191;-67
2023/10/11 06:37:52;;;;;;;13.17;6.80;;;;;;;;;;6206956;28;20249;-67
2023/10/11 06:41:36;;;;;;;13.13;6.80;;;;;;;;;;6208033;28;20196;-67
2023/10/11 06:44:18;;;;;;;8.43;6.33;;;;;;;;;;6228122;28;20228;-67
2023/10/11 06:47:21;;;;;;;9.33;6.90;;;;;;;;;;6206854;28;20211;-67
2023/10/11 06:50:24;;;;;;;12.30;7.40;;;;;;;;;;6225602;28;20197;-67
2023/10/11 06:53:25;;;;;;;12.23;8.10;;;;;;;;;;6213173;28;20203;-66
2023/10/11 06:56:27;;;;;;;11.63;7.43;;;;;;;;;;6227733;28;20186;-66
2023/10/11 06:59:28;;;;;;;16.03;8.07;;;;;;;;;;6211110;28;20195;-67
2023/10/11 07:02:32;;;;;;;13.67;7.63;;;;;;;;;;6217448;28;20212;-66
2023/10/11 07:05:40;;;;;;;15.23;7.60;;;;;;;;;;6209106;28;20191;-66
2023/10/11 07:08:59;;;;;;;11.27;8.03;;;;;;;;;;6205851;28;20242;-67
2023/10/11 07:12:28;;;;;;;14.07;7.07;;;;;;;;;;6199646;28;20220;-67
2023/10/11 07:15:31;;;;;;;15.70;7.77;;;;;;;;;;6211531;28;20199;-67
2023/10/11 07:18:39;;;;;;;13.00;7.27;;;;;;;;;;6214000;28;20193;-67
2023/10/11 07:24:55;;;;;;;13.17;7.27;;;;;;;;;;6224179;28;20239;-67
2023/10/11 07:27:56;;;;;;;14.63;8.73;;;;;;;;;;6209059;28;20255;-67
2023/10/11 07:30:57;;;;;;;14.23;7.97;;;;;;;;;;6207480;28;20222;-67
2023/10/11 07:33:59;;;;;;;15.10;8.43;;;;;;;;;;6214086;28;20237;-67
2023/10/11 07:37:03;;;;;;;11.43;7.50;;;;;;;;;;6213912;28;20278;-66
2023/10/11 07:40:10;;;;;;;13.23;7.63;;;;;;;;;;6206038;28;20200;-67
2023/10/11 07:43:15;;;;;;;15.47;8.17;;;;;;;;;;6217341;28;20214;-66
2023/10/11 07:46:17;;;;;;;11.67;7.50;;;;;;;;;;6218482;28;20227;-67
2023/10/11 07:49:24;;;;;;;12.47;8.33;;;;;;;;;;6210619;28;20225;-67
2023/10/11 07:52:25;;;;;;;14.37;8.00;;;;;;;;;;6217485;28;20197;-66
2023/10/11 07:55:26;;;;;;;13.07;8.13;;;;;;;;;;6214680;28;20229;-66
2023/10/11 07:58:32;;;;;;;12.10;7.50;;;;;;;;;;6211831;28;20195;-67
2023/10/11 08:01:42;;;;;;;11.70;8.13;;;;;;;;;;6207506;28;20217;-67
2023/10/11 08:04:47;;;;;;;13.77;8.50;;;;;;;;;;6225757;28;20286;-67
2023/10/11 08:07:48;;;;;;;12.23;7.53;;;;;;;;;;6210152;28;20278;-67
2023/10/11 08:10:52;;;;;;;12.07;7.50;;;;;;;;;;6201698;28;20196;-67
2023/10/11 08:13:59;;;;;;;14.00;7.67;;;;;;;;;;6201743;28;20196;-67
2023/10/11 08:17:10;;;;;;;12.87;7.60;;;;;;;;;;6216797;28;20253;-67
2023/10/11 08:20:15;;;;;;;12.00;7.50;;;;;;;;;;6212094;28;20191;-67
2023/10/11 08:23:28;;;;;;;16.63;8.40;;;;;;;;;;6207293;28;20218;-67
2023/10/11 08:26:32;;;;;;;13.80;8.13;;;;;;;;;;6205867;28;20199;-67
2023/10/11 08:29:35;;;;;;;15.40;7.87;;;;;;;;;;6211984;28;20206;-66
2023/10/11 08:32:38;;;;;;;13.00;7.97;;;;;;;;;;6209464;28;20209;-67
2023/10/11 08:35:46;;;;;;;14.93;8.37;;;;;;;;;;6223349;28;20245;-67
2023/10/11 08:38:47;;;;;;;10.70;6.63;;;;;;;;;;6208299;28;20226;-67
2023/10/11 08:41:49;;;;;;;14.80;7.80;;;;;;;;;;6204687;28;20237;-67
2023/10/11 08:44:50;;;;;;;9.57;6.63;;;;;;;;;;6229295;28;20225;-67
2023/10/11 08:47:52;;;;;;;9.20;6.73;;;;;;;;;;6224084;28;20196;-67
2023/10/11 08:50:56;;;;;;;10.97;7.30;;;;;;;;;;6214726;28;20223;-67
2023/10/11 08:54:00;;;;;;;14.70;7.50;;;;;;;;;;6227804;28;20230;-67
2023/10/11 08:57:03;;;;;;;11.43;7.77;;;;;;;;;;6213201;28;20216;-67
2023/10/11 09:00:17;;;;;;;9.53;6.97;;;;;;;;;;6222433;28;20285;-67
2023/10/11 09:03:19;;;;;;;12.73;6.87;;;;;;;;;;6212017;28;20272;-67
2023/10/11 09:06:21;;;;;;;12.70;7.10;;;;;;;;;;6227169;28;20444;-67
2023/10/11 09:09:41;;;;;;;11.10;6.37;;;;;;;;;;6212588;28;20199;-67
2023/10/11 09:12:45;;;;;;;8.67;6.43;;;;;;;;;;6202146;28;20209;-66
2023/10/11 09:15:46;;;;;;;9.57;7.00;;;;;;;;;;6208861;28;20218;-67
2023/10/11 09:19:06;;;;;;;14.17;6.87;;;;;;;;;;6206227;28;20211;-67
2023/10/11 09:22:18;;;;;;;11.97;6.63;;;;;;;;;;6227128;28;20188;-67
2023/10/11 09:25:33;;;;;;;15.83;8.27;;;;;;;;;;6230574;28;20250;-67
2023/10/11 09:28:40;;;;;;;13.37;6.97;;;;;;;;;;6225581;28;20530;-67
2023/10/11 09:31:57;;;;;;;15.13;7.80;;;;;;;;;;6203062;28;20254;-67
2023/10/11 09:34:58;;;;;;;9.07;6.77;;;;;;;;;;6216389;28;20197;-67
2023/10/11 09:38:00;;;;;;;11.30;6.93;;;;;;;;;;6212324;28;20202;-67
2023/10/11 09:41:02;;;;;;;13.73;6.40;;;;;;;;;;6205786;28;20199;-67
2023/10/11 09:44:12;;;;;;;11.47;6.83;;;;;;;;;;6231732;28;20207;-67
2023/10/11 09:47:17;;;;;;;12.73;7.40;;;15.30;85.70;;;;;;6212954;28;20199;-67
2023/10/11 09:50:17;;;;;;;13.77;8.17;;;15.50;82.20;;;;;;6199204;28;20316;-67
2023/10/11 09:53:19;;;;;;;16.07;8.17;;;15.60;81.60;;;;;;6198000;28;20195;-67
2023/10/11 09:56:20;;;;;;;13.33;8.53;;;;;;;;;;6188765;28;20210;-67
2023/10/11 09:59:37;;;;;;;12.33;8.10;;;;;;;;;;6225040;28;20233;-67
2023/10/11 10:02:39;;;;;;;15.93;9.20;;;;;;;;;;6228776;28;20215;-67
2023/10/11 10:06:00;;;;;;;18.03;9.87;;;;;;;;;;6224184;28;20198;-67
2023/10/11 10:09:16;;;;;;;13.67;8.63;;;;;;;;;;6219587;28;20196;-67
2023/10/11 10:12:21;;;;;;;14.07;9.07;;;;;;;;;;6220101;28;20195;-67
2023/10/11 10:15:28;;;;;;;13.70;8.57;;;;;;;;;;6211931;28;20198;-67
2023/10/11 10:18:35;;;;;;;11.37;8.10;;;;;;;;;;6216655;28;20203;-67
2023/10/11 10:21:59;;;;;;;12.70;8.37;;;;;;;;;;6219201;28;20190;-67
2023/10/11 10:25:30;;;;;;;12.60;8.53;;;;;;;;;;6223373;28;20318;-67
2023/10/11 10:28:42;;;;;;;14.80;8.43;;;;;;;;;;6209757;28;20195;-67
2023/10/11 10:32:03;;;;;;;12.17;8.10;;;;;;;;;;6226071;28;20183;-67
2023/10/11 10:35:18;;;;;;;11.90;8.33;;;;;;;;;;6219644;28;20192;-67
2023/10/11 10:38:22;;;;;;;17.77;7.97;;;;;;;;;;6220533;28;20195;-67
2023/10/11 10:41:25;;;;;;;16.43;8.57;;;;;;;;;;6208004;28;20188;-68
2023/10/11 10:44:26;;;;;;;14.97;7.77;;;;;;;;;;6234813;28;20206;-67
2023/10/11 10:47:31;;;;;;;12.90;8.40;;;;;;;;;;6231990;28;20189;-67
2023/10/11 10:50:46;;;;;;;14.53;8.27;;;;;;;;;;6213835;28;20443;-67
2023/10/11 10:53:53;;;;;;;15.10;7.57;;;;;;;;;;6226537;28;20195;-67
2023/10/11 10:56:55;;;;;;;12.27;6.67;;;;;;;;;;6209602;28;20187;-67
2023/10/11 10:59:56;;;;;;;12.73;7.37;;;;;;;;;;6208721;28;20206;-67
2023/10/11 11:02:57;;;;;;;15.13;7.40;;;;;;;;;;6228463;28;20277;-67
2023/10/11 11:05:59;;;;;;;12.87;6.90;;;;;;;;;;6212056;28;20302;-67
2023/10/11 11:09:00;;;;;;;13.77;7.00;;;;;;;;;;6202600;28;20195;-67
2023/10/11 11:12:14;;;;;;;15.10;7.10;;;;;;;;;;6214432;28;20195;-67
2023/10/11 11:15:22;;;;;;;8.33;6.47;;;;;;;;;;6208203;28;20202;-67
2023/10/11 11:18:33;;;;;;;11.73;7.00;;;;;;;;;;6201243;28;20201;-67
2023/10/11 11:21:44;;;;;;;13.33;7.03;;;;;;;;;;6223343;28;20188;-67
2023/10/11 11:24:52;;;;;;;13.30;6.90;;;;;;;;;;6204187;28;20245;-67
2023/10/11 11:28:04;;;;;;;14.07;6.90;;;;;;;;;;6231562;28;20278;-67
2023/10/11 11:31:10;;;;;;;14.10;7.07;;;;;;;;;;6231063;28;20238;-67
2023/10/11 11:34:13;;;;;;;10.43;6.13;;;;;;;;;;6229797;28;20202;-67
2023/10/11 11:37:22;;;;;;;13.10;6.13;;;;;;;;;;6214747;28;20202;-67
2023/10/11 11:40:26;;;;;;;10.33;5.57;;;;;;;;;;6218781;28;20213;-68
2023/10/11 11:43:38;;;;;;;10.60;6.43;;;;;;;;;;6232584;28;20211;-67
2023/10/11 11:46:39;;;;;;;18.63;6.60;;;;;;;;;;6223805;28;20290;-68
2023/10/11 11:49:40;;;;;;;11.60;6.70;;;;;;;;;;6205766;28;20232;-67
2023/10/11 11:52:42;;;;;;;10.90;5.47;;;;;;;;;;6204148;28;20202;-68
2023/10/11 11:55:43;;;;;;;12.37;5.93;;;;;;;;;;6194244;28;20205;-68
2023/10/11 11:58:46;;;;;;;9.17;5.03;;;;;;;;;;6216330;28;20248;-68
2023/10/11 12:01:56;;;;;;;13.07;5.37;;;;;;;;;;6233307;28;20274;-67
2023/10/11 12:04:57;;;;;;;9.23;4.57;;;;;;;;;;6226993;28;20215;-68
2023/10/11 12:07:58;;;;;;;9.47;4.70;;;;;;;;;;6210727;28;20198;-68
2023/10/11 12:10:59;;;;;;;8.17;5.17;;;;;;;;;;6204870;28;20294;-68
2023/10/11 12:14:03;;;;;;;7.40;5.00;;;;;;;;;;6226478;28;20269;-68
2023/10/11 12:17:11;;;;;;;7.33;4.67;;;;;;;;;;6233299;28;20214;-68
2023/10/11 12:20:18;;;;;;;8.57;5.00;;;;;;;;;;6227707;28;20203;-69
2023/10/11 12:23:20;;;;;;;11.20;5.90;;;;;;;;;;6233413;28;20238;-69
2023/10/11 12:26:21;;;;;;;7.83;4.30;;;;;;;;;;6208808;28;20198;-70
2023/10/11 12:29:22;;;;;;;8.00;4.97;;;;;;;;;;6206082;28;20281;-68
2023/10/11 12:32:23;;;;;;;9.57;5.30;;;;;;;;;;6222460;28;20232;-68
2023/10/11 12:35:24;;;;;;;6.93;4.70;;;;;;;;;;6208413;28;20209;-68
2023/10/11 12:38:25;;;;;;;4.77;4.13;;;;;;;;;;6216999;28;20197;-68
2023/10/11 12:41:26;;;;;;;8.37;4.60;;;;;;;;;;6213791;28;20289;-68
2023/10/11 12:44:28;;;;;;;5.93;4.60;;;;;;;;;;6214567;28;20229;-68
2023/10/11 12:47:30;;;;;;;8.80;4.70;;;;;;;;;;6225513;28;20190;-66
2023/10/11 12:50:31;;;;;;;10.37;4.67;;;;;;;;;;6241198;28;20194;-66
2023/10/11 12:53:32;;;;;;;9.07;4.70;;;;;;;;;;6226981;28;20216;-65
2023/10/11 12:56:33;;;;;;;7.83;4.43;;;;;;;;;;6206642;28;20197;-65
2023/10/11 12:59:35;;;;;;;7.53;4.73;;;;;;;;;;6209229;28;20203;-65
2023/10/11 13:02:37;;;;;;;7.90;4.40;;;;;;;;;;6211360;28;20191;-65
2023/10/11 13:05:39;;;;;;;9.37;4.97;;;;;;;;;;6211512;28;20219;-65
2023/10/11 13:08:40;;;;;;;8.27;4.50;;;;;;;;;;6207069;28;20229;-65
2023/10/11 13:11:44;;;;;;;7.47;4.57;;;15.80;80.90;;;;;;6204611;28;20237;-65
2023/10/11 13:14:45;;;;;;;11.70;4.83;;;;;;;;;;6228447;28;20262;-65
2023/10/11 13:17:46;;;;;;;10.63;5.50;;;24.00;50.00;;;;;;6205575;28;20195;-66
2023/10/11 13:20:47;;;;;;;14.23;5.20;;;33.30;40.50;;;;;;6208729;28;20205;-66
2023/10/11 13:23:47;;;;;;;7.47;4.77;;;34.00;38.50;;;;;;6199451;28;20276;-66
2023/10/11 13:26:56;;;;;;;9.83;4.37;;;34.40;37.90;;;;;;6191596;28;20230;-66
2023/10/11 13:30:02;;;;;;;10.32;5.18;;;35.30;36.60;;;;;;6212000;28;20229;-66
2023/10/11 13:33:05;;;;;;;9.98;4.93;;;35.50;36.90;;;;;;6218588;28;20285;-66
2023/10/11 13:36:07;;;;;;;11.07;5.68;;;35.80;36.30;;;;;;6202785;28;20276;-66
2023/10/11 13:39:25;;;;;;;9.65;5.70;;;36.20;36.00;;;;;;6191743;28;20274;-66
2023/10/11 13:42:26;;;;;;;9.80;5.07;;;36.40;35.00;;;;;;6242257;28;20191;-67
2023/10/11 13:45:27;;;;;;;10.93;5.15;;;36.30;35.50;;;;;;6193203;28;20249;-67
2023/10/11 13:48:37;;;;;;;9.82;5.07;;;36.30;35.40;;;;;;6191732;28;20191;-67
2023/10/11 13:51:38;;;;;;;9.13;4.90;;;35.70;35.70;;;;;;6216260;28;20264;-67
2023/10/11 13:57:41;;;;;;;7.83;5.00;;;34.20;37.80;;;;;;6202918;28;20186;-67
2023/10/11 14:03:48;;;;;;;10.00;5.10;;;33.00;38.90;;;;;;6222116;28;20357;-66
2023/10/11 14:07:21;;;;;;;9.53;4.97;;;;;;;;;;6201447;28;20190;-66
2023/10/11 14:10:28;;;;;;;9.10;5.37;;;24.00;50.00;;;;;;6220138;28;20215;-67
2023/10/11 14:13:29;;;;;;;11.10;5.30;;;;;;;;;;6195099;28;20218;-66
2023/10/11 14:16:31;;;;;;;10.60;5.17;;;;;;;;;;6192725;28;20191;-67
2023/10/11 14:19:33;;;;;;;10.97;5.20;;;;;;;;;;6204132;28;20214;-67
2023/10/11 14:22:33;;;;;;;9.53;5.20;;;28.50;46.10;;;;;;6204955;28;20190;-65
2023/10/11 14:25:35;;;;;;;12.37;5.57;;;;;;;;;;6185202;28;20301;-66
2023/10/11 14:28:36;;;;;;;9.70;5.83;;;28.00;47.40;;;;;;6214976;28;20205;-67
2023/10/11 14:31:37;;;;;;;8.50;4.80;;;27.40;48.60;;;;;;6195805;28;20194;-66
2023/10/11 14:34:38;;;;;;;9.00;5.40;;;;;;;;;;6224341;28;20217;-65
2023/10/11 14:37:42;;;;;;;10.17;4.93;;;;;;;;;;6230838;28;20182;-67
2023/10/11 14:40:44;;;;;;;7.60;5.30;;;;;;;;;;6232107;28;20184;-67
2023/10/11 14:43:45;;;;;;;8.07;4.97;;;;;;;;;;6221349;28;20244;-66
2023/10/11 14:46:47;;;;;;;10.70;5.63;;;;;;;;;;6198945;28;20191;-65
2023/10/11 14:49:48;;;;;;;12.27;5.80;;;;;;;;;;6210558;28;20187;-66
2023/10/11 14:52:49;;;;;;;10.43;5.43;;;;;;;;;;6207408;28;20273;-68
2023/10/11 14:55:54;;;;;;;9.17;5.10;;;;;;;;;;6219800;28;20207;-68
2023/10/11 14:58:56;;;;;;;9.13;5.00;;;;;;;;;;6211158;28;20198;-68
2023/10/11 15:01:58;;;;;;;12.83;5.33;;;;;;;;;;6210224;28;20191;-68
2023/10/11 15:04:59;;;;;;;9.13;5.00;;;;;;;;;;6212655;28;20183;-67
2023/10/11 15:08:00;;;;;;;11.60;5.57;;;;;;;;;;6213718;28;20205;-67
2023/10/11 15:11:04;;;;;;;8.67;5.23;;;;;;;;;;6217523;28;20296;-67
2023/10/11 15:14:07;;;;;;;8.60;4.70;;;27.00;50.50;;;;;;6206653;28;20309;-67
2023/10/11 15:17:11;;;;;;;10.90;4.80;;;28.10;50.70;;;;;;6199204;28;20199;-67
2023/10/11 15:20:12;;;;;;;7.60;4.67;;;;;;;;;;6203017;28;20195;-68
2023/10/11 15:23:13;;;;;;;8.47;4.93;;;;;;;;;;6210224;28;20277;-67
2023/10/11 15:26:17;;;;;;;11.17;5.47;;;;;;;;;;6209615;28;20355;-67
2023/10/11 15:29:22;;;;;;;11.93;5.63;;;27.30;52.50;;;;;;6228637;28;20190;-68
2023/10/11 15:32:23;;;;;;;7.80;5.10;;;;;;;;;;6215323;28;20195;-67
2023/10/11 15:35:26;;;;;;;10.57;4.93;;;;;;;;;;6209169;28;20252;-67
2023/10/11 15:38:27;;;;;;;7.73;4.83;;;;;;;;;;6209009;28;20190;-67
2023/10/11 15:41:29;;;;;;;13.77;5.67;;;;;;;;;;6233565;28;20249;-66
2023/10/11 15:44:31;;;;;;;9.37;4.93;;;;;;;;;;6213409;28;20202;-68
2023/10/11 15:47:35;;;;;;;10.13;4.97;;;;;;;;;;6207136;28;20195;-67
2023/10/11 15:50:36;;;;;;;8.27;5.47;;;;;;;;;;6217680;28;20199;-67
2023/10/11 15:53:38;;;;;;;7.77;5.07;;;;;;;;;;6211503;28;20237;-68
2023/10/11 15:56:43;;;;;;;9.33;5.27;;;;;;;;;;6200707;28;20191;-68
2023/10/11 15:59:46;;;;;;;11.43;5.60;;;;;;;;;;6204539;28;20225;-68
2023/10/11 16:02:47;;;;;;;8.40;5.17;;;;;;;;;;6230855;28;20217;-67
2023/10/11 16:05:49;;;;;;;14.30;5.80;;;;;;;;;;6210605;28;20202;-67
2023/10/11 16:08:50;;;;;;;11.30;5.67;;;;;;;;;;6214826;28;20194;-68
2023/10/11 16:11:52;;;;;;;8.63;5.17;;;;;;;;;;6225988;28;20190;-67
2023/10/11 16:14:53;;;;;;;9.20;5.33;;;;;;;;;;6202193;28;20289;-67
2023/10/11 16:17:54;;;;;;;5.97;4.97;;;;;;;;;;6210695;28;20191;-67
2023/10/11 16:20:55;;;;;;;10.47;6.07;;;;;;;;;;6200230;28;20199;-67
2023/10/11 16:23:57;;;;;;;11.33;5.73;;;;;;;;;;6232244;28;20240;-67
2023/10/11 16:26:58;;;;;;;7.77;5.20;;;;;;;;;;6224324;28;20198;-67
2023/10/11 16:29:59;;;;;;;9.87;5.53;;;;;;;;;;6208095;28;20195;-68
2023/10/11 16:33:00;;;;;;;8.10;5.60;;;;;;;;;;6215675;28;20220;-68
2023/10/11 16:36:03;;;;;;;7.90;5.83;;;;;;;;;;6207124;28;20195;-68
2023/10/11 16:39:13;;;;;;;8.80;6.13;;;;;;;;;;6229311;28;20190;-68
2023/10/11 16:42:15;;;;;;;10.73;6.30;;;;;;;;;;6213330;28;20191;-68
2023/10/11 16:45:17;;;;;;;11.37;6.67;;;;;;;;;;6209220;28;20226;-68
2023/10/11 16:48:18;;;;;;;10.20;7.53;;;;;;;;;;6202622;28;20199;-68
2023/10/11 16:51:20;;;;;;;9.80;8.80;;;;;;;;;;6229573;28;20199;-68
2023/10/11 16:54:21;;;;;;;10.67;8.33;;;;;;;;;;6199301;28;20218;-69
2023/10/11 16:57:22;;;;;;;12.63;7.57;;;;;;;;;;6204017;28;20195;-67
2023/10/11 17:00:24;;;;;;;9.07;7.07;;;;;;;;;;6204386;28;20203;-69
2023/10/11 17:03:26;;;;;;;10.83;6.00;;;;;;;;;;6213575;28;20187;-68
2023/10/11 17:06:27;;;;;;;7.47;5.87;;;;;;;;;;6197190;28;20261;-68
2023/10/11 17:09:29;;;;;;;10.47;6.13;;;;;;;;;;6197384;28;20240;-69
2023/10/11 17:12:31;;;;;;;9.73;6.33;;;;;;;;;;6206518;28;20277;-68
2023/10/11 17:15:33;;;;;;;11.60;6.60;;;;;;;;;;6210745;28;20371;-68
2023/10/11 17:18:37;;;;;;;10.00;6.20;;;;;;;;;;6214136;28;20195;-70
2023/10/11 17:21:39;;;;;;;7.63;5.90;;;;;;;;;;6215113;28;20196;-66
2023/10/11 17:24:40;;;;;;;9.80;6.17;;;;;;;;;;6206198;28;20322;-66
2023/10/11 17:27:44;;;;;;;7.70;5.53;;;;;;;;;;6213395;28;20197;-70
2023/10/11 17:30:46;;;;;;;12.13;6.33;;;;;;;;;;6206488;28;20263;-67
2023/10/11 17:33:47;;;;;;;10.37;6.67;;;;;;;;;;6204335;28;20242;-67
2023/10/11 17:36:49;;;;;;;9.17;6.33;;;;;;;;;;6202311;28;20210;-67
2023/10/11 17:39:51;;;;;;;10.60;6.07;;;;;;;;;;6204751;28;20203;-66
2023/10/11 17:42:52;;;;;;;8.50;6.10;;;;;;;;;;6196852;28;20191;-66
2023/10/11 17:45:54;;;;;;;11.27;6.40;;;;;;;;;;6218807;28;20206;-66
2023/10/11 17:48:55;;;;;;;12.10;6.53;;;;;;;;;;6210479;28;20199;-66
2023/10/11 17:51:57;;;;;;;11.97;6.20;;;;;;;;;;6218200;28;20191;-66
2023/10/11 17:54:59;;;;;;;9.67;6.17;;;;;;;;;;6204954;28;20222;-66
2023/10/11 17:58:00;;;;;;;11.03;7.33;;;;;;;;;;6209590;28;20195;-66
2023/10/11 18:01:04;;;;;;;7.33;5.83;;;;;;;;;;6214661;28;20198;-66
2023/10/11 18:04:06;;;;;;;7.87;5.90;;;;;;;;;;6213624;28;20218;-66
2023/10/11 18:07:07;;;;;;;12.60;5.93;;;;;;;;;;6216704;28;20198;-66
2023/10/11 18:10:10;;;;;;;8.00;6.80;;;;;;;;;;6212197;28;20195;-66
2023/10/11 18:13:12;;;;;;;13.17;8.10;;;;;;;;;;6232459;28;20327;-66
2023/10/11 18:16:13;;;;;;;10.77;7.90;;;;;;;;;;6218997;28;20201;-66
2023/10/11 18:19:16;;;;;;;10.23;6.97;;;;;;;;;;6216094;28;20257;-66
2023/10/11 18:22:18;;;;;;;11.93;6.50;;;;;;;;;;6214942;28;20226;-66
2023/10/11 18:25:19;;;;;;;10.70;7.13;;;;;;;;;;6232004;28;20235;-67
2023/10/11 18:28:21;;;;;;;7.47;6.63;;;;;;;;;;6235204;28;20218;-67
2023/10/11 18:31:24;;;;;;;9.50;6.63;;;;;;;;;;6219235;28;20336;-66
2023/10/11 18:34:26;;;;;;;9.27;5.97;;;;;;;;;;6219258;28;20264;-66
2023/10/11 18:37:27;;;;;;;14.80;6.93;;;;;;;;;;6219851;28;20199;-66
2023/10/11 18:40:30;;;;;;;10.23;6.67;;;;;;;;;;6216795;28;20223;-66
2023/10/11 18:43:32;;;;;;;9.83;6.70;;;;;;;;;;6208147;28;20199;-66